Portada
METAR-TAF:

METAR-TAF

Aeroports :

Antsiranana, Madagascar

latitud: 12-21S, longitud: 049-18E, altitud: 114 m

Observació

L'informe es va fer fa 55 minuts, a les 09:00 UTC
Vent 21 kt del Sud-Est amb ràfegues de 30 kt
Temperatura 31°C
Humitat 40%
Pressió 1013 hPa
Visibilitat 10 km o més
Núvols disperses a una alçada de 2000 ft

METAR: FMNA 240900Z 14021G30KT 9999 SCT020 31/16 Q1013

Hora: 12:55 (09:55 UTC)

Pronòstic

L'informe es va fer fa 4 hores i 55 minuts, a les 05:00 UTC
Pronòstic vàlid del 24 a les 06 UTC al 25 a les 06 UTC
Vent 14 kt del Sud-Est amb ràfegues de 30 kt
Visibilitat 10 km o més
Escasses núvols a una alçada de 2000 ft

TAF: FMNA 240500Z 2406/2506 14014G30KT 9999 FEW020

Observacions i pronòstics meteorològics de més de 4000 aeroports (METAR i TAF).

Les estacions disponibles són els punts grocs i vermells al mapa.

Posi el ratolí al punt desitjat per veure el nom de l'estació.

Feu clic per veure les observacions i els pronòstics meteorològics.

Per canviar el mapa: feu clic els botons verds amb una creu de color negre per apropar; al botó verd amb un guió per allunyar la imatge; o en les fletxes verdes per a mapes adjacents.


METAR-TAF: